Time;durP1;ratioP1;P1;durP2;ratioP2;P2;SDS_P1;SDS_P2;PMS_P1;PMS_P2;Temp;Humidity;BMP_temperature;BMP_pressure;BME280_temperature;BME280_humidity;BME280_pressure;Samples;Min_cycle;Max_cycle;Signal;HPM_P1;HPM_P2
2021/08/25 00:00:50;;;;;;;5.60;3.70;;;;;;;12.17;83.92;99312.63;233355;1206;22473;-72
2021/08/25 00:05:53;;;;;;;6.00;3.50;;;;;;;12.20;83.95;99305.06;233381;1206;24230;-71
2021/08/25 00:11:03;;;;;;;7.00;3.40;;;;;;;12.23;83.62;99303.20;233284;1209;22461;-72
2021/08/25 00:16:11;;;;;;;5.90;3.40;;;;;;;12.28;83.62;99304.50;233330;1204;25140;-71
2021/08/25 00:21:15;;;;;;;6.80;3.60;;;;;;;12.30;83.60;99300.08;233530;1202;25059;-70
2021/08/25 00:26:19;;;;;;;4.60;3.60;;;;;;;12.29;83.61;99296.48;233364;1202;24202;-72
2021/08/25 00:31:22;;;;;;;4.40;3.00;;;;;;;12.27;83.31;99298.05;233577;1201;24060;-70
2021/08/25 00:36:25;;;;;;;4.80;3.40;;;;;;;12.24;83.14;99293.05;233452;1203;24068;-71
2021/08/25 00:41:28;;;;;;;5.60;3.30;;;;;;;12.25;83.16;99292.87;233470;1200;24026;-71
2021/08/25 00:46:36;;;;;;;6.90;3.90;;;;;;;12.27;83.45;99287.70;233611;1208;22584;-70
2021/08/25 00:51:43;;;;;;;7.50;3.30;;;;;;;12.29;83.49;99287.20;233453;1206;22451;-72
2021/08/25 00:56:49;;;;;;;5.60;3.10;;;;;;;12.31;83.35;99282.70;233574;1200;22559;-72
2021/08/25 01:02:23;;;;;;;6.70;4.20;;;;;;;12.36;83.47;99279.20;233477;1202;24077;-72
2021/08/25 01:07:32;;;;;;;5.70;3.70;;;;;;;12.38;83.45;99275.05;233462;1202;24166;-72
2021/08/25 01:12:34;;;;;;;6.90;3.40;;;;;;;12.39;83.57;99282.67;233724;1200;22468;-70
2021/08/25 01:17:39;;;;;;;7.00;3.50;;;;;;;12.44;83.51;99278.08;233480;1202;24160;-73
2021/08/25 01:22:42;;;;;;;5.40;3.60;;;;;;;12.50;83.35;99273.61;233521;1195;24141;-73
2021/08/25 01:27:55;;;;;;;6.60;4.00;;;;;;;12.51;83.04;99273.85;233535;1203;24061;-70
2021/08/25 01:33:01;;;;;;;6.80;3.50;;;;;;;12.48;82.68;99273.14;233531;1202;25101;-73
2021/08/25 01:38:26;;;;;;;5.40;3.10;;;;;;;12.49;82.75;99273.40;233429;1200;24268;-72
2021/08/25 01:43:32;;;;;;;6.00;3.50;;;;;;;12.46;82.34;99265.05;233564;1202;22546;-71
2021/08/25 01:48:34;;;;;;;7.60;4.20;;;;;;;12.45;82.55;99257.11;233556;1200;22560;-71
2021/08/25 01:53:46;;;;;;;5.50;3.30;;;;;;;12.44;82.45;99255.55;233370;1202;25443;-70
2021/08/25 01:58:49;;;;;;;6.30;3.80;;;;;;;12.43;82.41;99243.27;233442;1206;22475;-73
2021/08/25 02:03:53;;;;;;;6.80;3.80;;;;;;;12.43;82.34;99240.89;233580;1200;24143;-72
2021/08/25 02:08:56;;;;;;;6.60;3.70;;;;;;;12.43;82.27;99233.28;233601;1203;25370;-72
2021/08/25 02:14:06;;;;;;;10.40;4.30;;;;;;;12.40;82.43;99226.66;233622;1205;24261;-72
2021/08/25 02:19:11;;;;;;;8.40;4.10;;;;;;;12.39;82.22;99228.65;233687;1202;22485;-70
2021/08/25 02:24:13;;;;;;;8.80;3.90;;;;;;;12.38;82.30;99224.06;233561;1201;24098;-69
2021/08/25 02:29:16;;;;;;;9.60;4.70;;;;;;;12.36;82.25;99219.09;233729;1204;24224;-69
2021/08/25 02:34:24;;;;;;;7.40;4.30;;;;;;;12.32;82.34;99216.40;233601;1200;25281;-71
2021/08/25 02:39:26;;;;;;;6.00;4.10;;;;;;;12.26;82.23;99216.36;233524;1202;22512;-70
2021/08/25 02:44:29;;;;;;;6.70;4.40;;;;;;;12.25;82.48;99212.13;233563;1201;22463;-73
2021/08/25 02:49:31;;;;;;;6.70;4.00;;;;;;;12.25;82.55;99213.30;233502;1202;22575;-72
2021/08/25 02:54:34;;;;;;;8.90;4.80;;;;;;;12.24;82.45;99204.57;233510;1201;24096;-71
2021/08/25 02:59:36;;;;;;;7.00;4.00;;;;;;;12.20;82.46;99198.39;233471;1201;24073;-72
2021/08/25 03:04:39;;;;;;;9.80;4.40;;;;;;;12.15;82.31;99200.98;233304;1202;24131;-72
2021/08/25 03:09:42;;;;;;;10.10;4.70;;;;;;;12.09;82.37;99197.28;233559;1202;24014;-72
2021/08/25 03:14:44;;;;;;;7.20;4.10;;;;;;;12.07;82.34;99200.64;233384;1206;26172;-72
2021/08/25 03:20:00;;;;;;;10.00;4.50;;;;;;;12.00;82.34;99194.39;233499;1202;24122;-70
2021/08/25 03:25:23;;;;;;;8.40;4.60;;;;;;;11.93;82.48;99190.86;233459;1202;24099;-70
2021/08/25 03:30:25;;;;;;;7.30;4.70;;;;;;;11.87;82.41;99189.15;233550;1202;24354;-70
2021/08/25 03:35:28;;;;;;;7.20;4.90;;;;;;;11.81;82.55;99190.88;233529;1206;24124;-72
2021/08/25 03:40:30;;;;;;;8.20;5.00;;;;;;;11.77;82.66;99190.17;233505;1195;22466;-72
2021/08/25 03:45:34;;;;;;;8.00;5.00;;;;;;;11.72;83.05;99189.63;233516;1205;22481;-73
2021/08/25 03:50:36;;;;;;;8.00;4.90;;;;;;;11.66;83.07;99187.08;233496;1195;25298;-70
2021/08/25 03:55:39;;;;;;;11.10;4.90;;;;;;;11.60;83.06;99180.16;233386;1206;22447;-72
2021/08/25 04:00:44;;;;;;;7.90;4.90;;;;;;;11.56;83.30;99186.58;233461;1195;24055;-72
2021/08/25 04:05:47;;;;;;;8.60;5.20;;;;;;;11.54;83.52;99187.47;233552;1198;24057;-73
2021/08/25 04:10:50;;;;;;;7.70;4.90;;;;;;;11.53;83.61;99191.23;233681;1201;24099;-71
2021/08/25 04:15:53;;;;;;;7.90;4.60;;;;;;;11.56;83.66;99191.20;233406;1203;24169;-71
2021/08/25 04:21:08;;;;;;;9.00;5.20;;;;;;;11.60;83.79;99188.86;233575;1201;23972;-72
2021/08/25 04:26:11;;;;;;;9.90;5.60;;;;;;;11.65;83.56;99182.67;233468;1202;24068;-70
2021/08/25 04:31:14;;;;;;;10.90;5.50;;;;;;;11.76;84.03;99170.64;233391;1201;22425;-70
2021/08/25 04:36:18;;;;;;;10.80;5.50;;;;;;;11.85;83.47;99178.70;233722;1201;22585;-72
2021/08/25 04:41:20;;;;;;;10.50;4.80;;;;;;;11.90;83.21;99174.14;233500;1206;22453;-70
2021/08/25 04:46:24;;;;;;;10.60;5.20;;;;;;;11.98;82.76;99174.77;233301;1202;23656;-73
2021/08/25 04:51:27;;;;;;;9.10;4.70;;;;;;;12.02;82.57;99176.42;233776;1203;25197;-72
2021/08/25 04:56:30;;;;;;;7.80;4.40;;;;;;;12.10;82.70;99179.45;233497;1201;24186;-72
2021/08/25 05:01:43;;;;;;;8.30;4.40;;;;;;;12.24;82.63;99180.08;233758;1201;24226;-72
2021/08/25 05:07:03;;;;;;;6.70;4.40;;;;;;;12.35;82.51;99171.82;233463;1201;22617;-72
2021/08/25 05:12:15;;;;;;;10.20;4.50;;;;;;;12.43;82.36;99167.23;233529;1201;24032;-72
2021/08/25 05:17:19;;;;;;;6.60;4.00;;;;;;;12.51;82.35;99163.95;233631;1201;24035;-70
2021/08/25 05:22:22;;;;;;;6.10;3.80;;;;;;;12.56;82.28;99163.29;233660;1201;22470;-72
2021/08/25 05:27:25;;;;;;;8.40;4.70;;;;;;;12.63;82.05;99157.55;233419;1202;24057;-72
2021/08/25 05:32:28;;;;;;;10.90;5.70;;;;;;;12.62;82.01;99156.20;233506;1195;22496;-71
2021/08/25 05:37:31;;;;;;;10.60;4.70;;;;;;;12.61;82.02;99153.48;233425;1202;24127;-72
2021/08/25 05:42:34;;;;;;;7.50;4.90;;;;;;;12.61;82.01;99149.83;233416;1204;22453;-72
2021/08/25 05:47:38;;;;;;;8.40;5.10;;;;;;;12.67;82.26;99150.17;233655;1200;24066;-72
2021/08/25 05:52:44;;;;;;;8.40;5.00;;;;;;;12.74;82.22;99151.95;234035;1201;22499;-72
2021/08/25 05:58:03;;;;;;;;;;;;;;;12.78;81.87;99157.80;233946;1195;22437;-72
2021/08/25 06:03:05;;;;;;;9.20;5.90;;;;;;;12.86;81.94;99157.18;233917;1201;26322;-71
2021/08/25 06:08:08;;;;;;;9.90;5.90;;;;;;;12.95;81.97;99162.04;233845;1195;22555;-74
2021/08/25 06:13:10;;;;;;;9.50;6.10;;;;;;;13.03;81.61;99163.42;234099;1201;22564;-73
2021/08/25 06:18:14;;;;;;;11.00;6.30;;;;;;;13.07;81.13;99163.67;234348;1202;24778;-72
2021/08/25 06:23:17;;;;;;;12.40;7.40;;;;;;;13.14;81.11;99164.62;238953;1203;24086;-72
2021/08/25 06:28:26;;;;;;;11.60;6.70;;;;;;;13.26;80.99;99170.13;234509;1201;23970;-71
2021/08/25 06:33:29;;;;;;;9.00;5.80;;;;;;;13.36;80.79;99171.64;233894;1201;22459;-72
2021/08/25 06:38:31;;;;;;;10.30;7.20;;;;;;;13.44;80.34;99163.70;233992;1201;24031;-71
2021/08/25 06:43:33;;;;;;;11.30;5.90;;;;;;;13.44;79.98;99164.65;233900;1201;22571;-70
2021/08/25 06:48:36;;;;;;;13.90;6.10;;;;;;;13.54;80.20;99164.15;234128;1193;24058;-73
2021/08/25 06:53:43;;;;;;;10.00;6.40;;;;;;;13.66;79.90;99164.95;233970;1204;26469;-73
2021/08/25 06:58:53;;;;;;;11.70;6.90;;;;;;;13.82;80.04;99159.94;233782;1202;25385;-71
2021/08/25 07:03:59;;;;;;;9.50;5.50;;;;;;;13.99;79.56;99154.66;233885;1201;24042;-73
2021/08/25 07:09:02;;;;;;;10.30;6.00;;;;;;;14.08;78.68;99153.77;233544;1201;24186;-73
2021/08/25 07:14:09;;;;;;;11.10;5.70;;;;;;;14.19;78.68;99154.44;233927;1208;22602;-70
2021/08/25 07:19:26;;;;;;;9.10;5.60;;;;;;;14.30;78.19;99157.77;233635;1201;25080;-71
2021/08/25 07:24:32;;;;;;;10.70;5.40;;;;;;;14.46;77.83;99151.53;233640;1201;24156;-71
2021/08/25 07:29:35;;;;;;;7.50;5.00;;;;;;;14.62;77.32;99146.70;233737;1201;24080;-72
2021/08/25 07:34:37;;;;;;;8.10;4.70;;;;;;;14.77;76.63;99142.86;233896;1204;22501;-71
2021/08/25 07:39:40;;;;;;;7.30;4.70;;;;;;;14.90;76.35;99143.98;233925;1201;22833;-73
2021/08/25 07:44:43;;;;;;;6.00;4.20;;;;;;;14.99;75.29;99138.73;233598;1201;24000;-74
2021/08/25 07:49:46;;;;;;;8.20;5.30;;;;;;;15.14;74.79;99132.86;233886;1201;22503;-73
2021/08/25 07:54:49;;;;;;;7.30;4.70;;;;;;;15.23;72.86;99131.12;233677;1201;24291;-73
2021/08/25 07:59:52;;;;;;;10.20;4.30;;;;;;;15.27;72.22;99126.30;233562;1201;24185;-73
2021/08/25 08:04:54;;;;;;;8.80;4.90;;;;;;;15.37;71.74;99117.37;233515;1201;24119;-73
2021/08/25 08:09:57;;;;;;;7.40;4.00;;;;;;;15.58;71.39;99114.84;233636;1202;24106;-72
2021/08/25 08:15:04;;;;;;;7.20;4.20;;;;;;;15.77;69.66;99109.63;234475;1201;24191;-70
2021/08/25 08:20:22;;;;;;;5.70;3.80;;;;;;;16.01;68.18;99106.09;233492;1202;22457;-71
2021/08/25 08:25:39;;;;;;;6.00;3.60;;;;;;;16.30;66.43;99102.01;233742;1201;24038;-70
2021/08/25 08:31:00;;;;;;;6.70;3.90;;;;;;;16.59;65.35;99097.06;233641;1201;22456;-72
2021/08/25 08:36:03;;;;;;;6.30;3.80;;;;;;;16.89;64.58;99094.79;233406;1201;24182;-71
2021/08/25 08:41:06;;;;;;;6.80;4.00;;;;;;;16.95;62.94;99089.82;233348;1201;24064;-71
2021/08/25 08:46:16;;;;;;;5.70;3.60;;;;;;;16.85;62.14;99085.75;233443;1201;22948;-71
2021/08/25 08:51:23;;;;;;;5.10;3.70;;;;;;;16.87;61.43;99080.56;233585;1201;22458;-72
2021/08/25 08:56:25;;;;;;;6.40;3.70;;;;;;;17.09;60.83;99070.38;233382;1203;24040;-74
2021/08/25 09:01:30;;;;;;;8.10;4.60;;;;;;;17.45;60.14;99063.65;233690;1201;24052;-71
2021/08/25 09:06:49;;;;;;;8.30;4.10;;;;;;;17.62;58.55;99062.67;234040;1201;24065;-73
2021/08/25 09:11:59;;;;;;;7.30;4.00;;;;;;;17.36;57.94;99061.21;233543;1201;24068;-71
2021/08/25 09:17:03;;;;;;;5.20;3.70;;;;;;;17.34;57.96;99058.27;233725;1201;22482;-71
2021/08/25 09:22:18;;;;;;;6.70;4.20;;;;;;;17.60;57.67;99047.67;234120;1197;22951;-72
2021/08/25 09:27:29;;;;;;;5.90;3.70;;;;;;;17.85;56.35;99045.81;233883;1201;24056;-73
2021/08/25 09:32:48;;;;;;;5.60;4.10;;;;;;;17.68;54.81;99041.13;233686;1197;24036;-73
2021/08/25 09:37:56;;;;;;;6.20;4.00;;;;;;;17.50;54.81;99043.48;234252;1201;24934;-73
2021/08/25 09:42:59;;;;;;;6.60;4.20;;;;;;;17.23;54.19;99036.73;234248;1204;22991;-73
2021/08/25 09:48:02;;;;;;;6.70;4.30;;;;;;;17.14;54.63;99028.17;234245;1202;22442;-73
2021/08/25 09:53:18;;;;;;;6.50;4.10;;;;;;;17.31;54.58;99027.77;233854;1209;24607;-72
2021/08/25 09:58:24;;;;;;;6.90;4.40;;;;;;;17.67;54.34;99018.62;233859;1204;22460;-73
2021/08/25 10:03:36;;;;;;;7.70;4.30;;;;;;;17.86;53.00;99013.36;234190;1193;24025;-73
2021/08/25 10:08:57;;;;;;;;;;;;;;;17.88;52.56;99002.27;234447;1201;25110;-73
2021/08/25 10:14:06;;;;;;;7.40;4.30;;;;;;;18.03;52.48;98994.30;234328;1195;22575;-72
2021/08/25 10:19:41;;;;;;;6.50;4.60;;;;;;;18.37;52.01;98989.23;233776;1201;25298;-72
2021/08/25 10:24:53;;;;;;;9.80;4.90;;;;;;;18.72;51.21;98987.92;233695;1201;26329;-73
2021/08/25 10:30:06;;;;;;;8.30;5.00;;;;;;;18.50;50.93;98990.36;233530;1201;24061;-72
2021/08/25 10:35:29;;;;;;;7.50;4.60;;;;;;;18.22;51.41;98980.95;233778;1203;22464;-72
2021/08/25 10:40:32;;;;;;;9.10;5.40;;;;;;;18.16;51.64;98974.48;233856;1201;22490;-73
2021/08/25 10:45:38;;;;;;;7.40;4.20;;;;;;;18.18;52.04;98965.78;233555;1201;26251;-72
2021/08/25 10:50:58;;;;;;;6.20;4.30;;;;;;;18.43;51.64;98966.35;233792;1201;22455;-71
2021/08/25 10:56:27;;;;;;;6.50;4.30;;;;;;;18.76;51.22;98960.29;235298;1203;24071;-72
2021/08/25 11:01:43;;;;;;;6.40;4.30;;;;;;;19.02;50.28;98952.61;233917;1195;22527;-71
2021/08/25 11:06:56;;;;;;;7.90;5.60;;;;;;;18.96;49.31;98944.20;234172;1193;24659;-72
2021/08/25 11:11:58;;;;;;;7.20;5.60;;;;;;;19.14;48.88;98932.48;233903;1201;22457;-71
2021/08/25 11:17:10;;;;;;;5.90;4.00;;;;;;;19.42;49.00;98933.02;234067;1201;24055;-71
2021/08/25 11:22:19;;;;;;;6.50;4.40;;;;;;;19.38;48.47;98924.98;233775;1195;24065;-72
2021/08/25 11:27:35;;;;;;;7.30;4.70;;;;;;;19.07;48.81;98919.55;233949;1201;24039;-72
2021/08/25 11:32:49;;;;;;;7.70;5.10;;;;;;;19.02;48.80;98917.55;234483;1201;22454;-72
2021/08/25 11:37:55;;;;;;;6.50;4.40;;;;;;;19.19;48.91;98912.53;234407;1195;24316;-73
2021/08/25 11:43:09;;;;;;;7.40;4.70;;;;;;;19.30;48.70;98908.06;234166;1201;25066;-72
2021/08/25 11:48:12;;;;;;;8.50;5.30;;;;;;;19.51;48.57;98906.88;233669;1205;22764;-72
2021/08/25 11:53:27;;;;;;;6.90;4.70;;;;;;;19.55;48.12;98902.02;234052;1201;24208;-72
2021/08/25 11:58:42;;;;;;;7.70;4.70;;;;;;;19.64;47.24;98898.54;233869;1195;22458;-72
2021/08/25 12:03:59;;;;;;;10.10;5.10;;;;;;;19.64;46.81;98887.14;234077;1195;22468;-74
2021/08/25 12:09:14;;;;;;;7.90;5.30;;;;;;;19.63;45.92;98888.34;234302;1201;22562;-72
2021/08/25 12:14:55;;;;;;;7.50;4.60;;;;;;;19.63;45.79;98877.23;234120;1201;22474;-73
2021/08/25 12:20:01;;;;;;;7.30;4.80;;;;;;;19.82;46.42;98873.43;234050;1201;22498;-73
2021/08/25 12:25:04;;;;;;;7.90;4.70;;;;;;;19.67;46.66;98865.46;234006;1201;22458;-73
2021/08/25 12:30:13;;;;;;;8.40;5.60;;;;;;;19.55;46.61;98858.71;234267;1195;24195;-74
2021/08/25 12:35:23;;;;;;;7.10;5.10;;;;;;;19.54;46.54;98848.27;235046;1201;25049;-72
2021/08/25 12:40:27;;;;;;;7.30;4.90;;;;;;;19.52;45.95;98841.09;234141;1201;22460;-72
2021/08/25 12:45:30;;;;;;;8.20;5.10;;;;;;;19.64;46.62;98832.92;234571;1201;24102;-72
2021/08/25 12:50:33;;;;;;;13.70;5.60;;;;;;;19.79;46.63;98831.42;233835;1202;24103;-72
2021/08/25 12:55:36;;;;;;;7.70;4.90;;;;;;;19.84;46.02;98825.03;233859;1201;22890;-71
2021/08/25 13:00:39;;;;;;;6.90;4.60;;;;;;;19.94;46.30;98821.41;233920;1201;24064;-72
2021/08/25 13:05:41;;;;;;;7.30;4.60;;;;;;;20.12;45.87;98816.48;234084;1202;24063;-72
2021/08/25 13:10:44;;;;;;;8.20;5.90;;;;;;;20.09;45.71;98814.92;233752;1201;22471;-72
2021/08/25 13:15:47;;;;;;;6.80;4.40;;;;;;;20.09;45.70;98799.39;233736;1201;24062;-72
2021/08/25 13:20:53;;;;;;;8.80;5.80;;;;;;;20.02;45.57;98793.25;233795;1201;24055;-71
2021/08/25 13:25:57;;;;;;;8.90;5.10;;;;;;;19.84;45.77;98788.11;233933;1202;24125;-70
2021/08/25 13:30:59;;;;;;;8.00;5.10;;;;;;;19.57;46.16;98784.95;233897;1201;22439;-73
2021/08/25 13:36:01;;;;;;;8.00;5.20;;;;;;;19.22;45.92;98778.86;233695;1196;22502;-73
2021/08/25 13:41:05;;;;;;;8.00;4.60;;;;;;;18.80;46.50;98775.17;234077;1202;22505;-74
2021/08/25 13:46:07;;;;;;;8.30;5.10;;;;;;;18.63;47.45;98772.83;234082;1202;25081;-74
2021/08/25 13:51:10;;;;;;;7.70;4.90;;;;;;;18.67;47.59;98771.39;233894;1201;24135;-74
2021/08/25 13:56:14;;;;;;;17.50;10.70;;;;;;;18.57;47.59;98764.23;234123;1201;22467;-74
2021/08/25 14:01:16;;;;;;;64.90;42.80;;;;;;;18.56;47.92;98757.90;234047;1205;22490;-72
2021/08/25 14:06:19;;;;;;;32.60;24.20;;;;;;;18.65;47.96;98747.55;234318;1201;24047;-72
2021/08/25 14:11:21;;;;;;;8.30;5.30;;;;;;;18.83;47.54;98735.74;233968;1201;24217;-74
2021/08/25 14:16:25;;;;;;;8.70;4.90;;;;;;;19.03;47.41;98727.08;233933;1205;22462;-73
2021/08/25 14:21:27;;;;;;;7.90;5.30;;;;;;;19.19;47.27;98723.24;233811;1201;24126;-74
2021/08/25 14:26:33;;;;;;;8.50;4.80;;;;;;;19.18;47.08;98718.57;233916;1203;22554;-72
2021/08/25 14:31:35;;;;;;;9.50;5.40;;;;;;;19.13;46.69;98712.77;233688;1202;24166;-72
2021/08/25 14:36:39;;;;;;;8.30;5.00;;;;;;;19.11;47.11;98702.71;233476;1202;24185;-74
2021/08/25 14:41:42;;;;;;;8.40;4.70;;;;;;;19.11;47.02;98698.62;233613;1201;24419;-73
2021/08/25 14:46:44;;;;;;;8.40;4.80;;;;;;;19.18;47.15;98688.54;233658;1202;22504;-74
2021/08/25 14:51:48;;;;;;;6.90;5.00;;;;;;;19.21;46.17;98679.02;233722;1201;24180;-74
2021/08/25 14:56:50;;;;;;;8.20;4.70;;;;;;;19.14;45.65;98678.67;233653;1201;22449;-74
2021/08/25 15:01:53;;;;;;;8.10;4.70;;;;;;;19.07;46.05;98677.48;233443;1202;24389;-72
2021/08/25 15:06:55;;;;;;;8.80;4.70;;;;;;;18.98;45.61;98666.70;233526;1201;22447;-73
2021/08/25 15:12:11;;;;;;;8.30;4.30;;;;;;;18.95;46.56;98664.75;233130;1206;24138;-72
2021/08/25 15:17:14;;;;;;;5.70;4.20;;;;;;;18.93;46.69;98662.69;233602;1207;22400;-72
2021/08/25 15:22:18;;;;;;;7.00;4.70;;;;;;;18.96;46.87;98655.26;233623;1201;22451;-72
2021/08/25 15:27:20;;;;;;;7.50;4.50;;;;;;;19.01;46.96;98652.33;233878;1201;22463;-74
2021/08/25 15:32:23;;;;;;;8.30;4.40;;;;;;;18.97;46.81;98647.52;233752;1208;25338;-74
2021/08/25 15:37:26;;;;;;;5.80;4.10;;;;;;;18.92;46.81;98643.42;233769;1200;22441;-74
2021/08/25 15:42:28;;;;;;;5.10;3.80;;;;;;;18.82;46.64;98634.60;233775;1200;22476;-72
2021/08/25 15:47:31;;;;;;;5.60;4.50;;;;;;;18.77;47.18;98627.88;233549;1200;24070;-73
2021/08/25 15:52:36;;;;;;;8.60;4.80;;;;;;;18.74;47.00;98625.55;233862;1205;24230;-75
2021/08/25 15:57:39;;;;;;;6.70;4.40;;;;;;;18.68;47.28;98617.94;233920;1202;24136;-73
2021/08/25 16:02:41;;;;;;;6.70;4.20;;;;;;;18.55;47.02;98611.25;233735;1202;22467;-73
2021/08/25 16:07:44;;;;;;;6.40;3.90;;;;;;;18.44;47.35;98596.91;233859;1201;23044;-72
2021/08/25 16:12:46;;;;;;;6.20;4.30;;;;;;;18.35;47.94;98596.13;233945;1202;24071;-74
2021/08/25 16:17:51;;;;;;;6.10;3.90;;;;;;;18.24;48.08;98586.37;234115;1202;22657;-73
2021/08/25 16:22:53;;;;;;;7.20;3.90;;;;;;;18.15;48.07;98581.45;234587;1197;24106;-74
2021/08/25 16:27:56;;;;;;;5.50;4.10;;;;;;;18.08;48.62;98578.23;233912;1200;22477;-74
2021/08/25 16:33:00;;;;;;;8.20;5.20;;;;;;;18.01;49.02;98571.91;233884;1202;23993;-74
2021/08/25 16:38:02;;;;;;;8.20;4.40;;;;;;;17.92;49.57;98559.65;233742;1206;23650;-74
2021/08/25 16:43:05;;;;;;;6.00;4.30;;;;;;;17.80;49.45;98547.96;233690;1201;25296;-74
2021/08/25 16:48:08;;;;;;;7.70;4.10;;;;;;;17.73;49.60;98542.05;233730;1201;24070;-73
2021/08/25 16:53:10;;;;;;;6.50;4.10;;;;;;;17.66;49.78;98537.59;233321;1202;22572;-74
2021/08/25 16:58:14;;;;;;;9.40;4.30;;;;;;;17.43;50.02;98532.71;233753;1200;22469;-73
2021/08/25 17:03:17;;;;;;;7.50;4.90;;;;;;;17.18;50.55;98530.61;233854;1206;24525;-72
2021/08/25 17:08:19;;;;;;;6.90;4.50;;;;;;;16.98;51.10;98525.40;233435;1206;24055;-74
2021/08/25 17:13:23;;;;;;;9.70;5.40;;;;;;;16.75;51.63;98519.14;233637;1203;22443;-73
2021/08/25 17:18:28;;;;;;;9.30;6.40;;;;;;;16.53;52.33;98516.56;233849;1201;22374;-74
2021/08/25 17:23:31;;;;;;;7.40;4.80;;;;;;;16.31;52.88;98509.40;233898;1205;22604;-72
2021/08/25 17:28:33;;;;;;;6.70;4.60;;;;;;;16.11;53.44;98504.66;233451;1200;24067;-72
2021/08/25 17:33:36;;;;;;;10.50;7.20;;;;;;;15.90;54.09;98498.70;233245;1205;24068;-72
2021/08/25 17:38:38;;;;;;;9.80;5.60;;;;;;;15.70;54.58;98489.20;233498;1201;24109;-74
2021/08/25 17:43:41;;;;;;;8.80;5.50;;;;;;;15.50;55.28;98487.21;233396;1202;22455;-73
2021/08/25 17:48:43;;;;;;;8.60;5.60;;;;;;;15.29;55.83;98483.48;233347;1208;25312;-71
2021/08/25 17:53:46;;;;;;;10.00;5.30;;;;;;;15.09;56.26;98479.09;233462;1202;22497;-72
2021/08/25 17:58:49;;;;;;;9.90;5.10;;;;;;;14.91;56.76;98476.54;233478;1206;22499;-72
2021/08/25 18:03:51;;;;;;;9.50;5.40;;;;;;;14.75;57.41;98471.44;233408;1201;24077;-72
2021/08/25 18:08:53;;;;;;;9.70;6.00;;;;;;;14.62;58.20;98474.99;233321;1195;22454;-73
2021/08/25 18:13:56;;;;;;;10.70;6.60;;;;;;;14.48;59.21;98477.94;233329;1202;25172;-74
2021/08/25 18:18:59;;;;;;;11.60;6.40;;;;;;;14.31;59.99;98479.42;233442;1202;24111;-74
2021/08/25 18:24:01;;;;;;;9.60;5.20;;;;;;;14.14;60.41;98475.50;233226;1196;24089;-74
2021/08/25 18:29:04;;;;;;;10.70;5.90;;;;;;;14.01;60.71;98470.84;233295;1197;22453;-74
2021/08/25 18:34:09;;;;;;;13.40;7.00;;;;;;;13.91;61.32;98471.81;233511;1202;24165;-71
2021/08/25 18:39:12;;;;;;;11.80;8.20;;;;;;;13.78;61.85;98466.11;233424;1202;24555;-74
2021/08/25 18:44:14;;;;;;;10.70;6.40;;;;;;;13.64;62.41;98462.88;233277;1209;24102;-73
2021/08/25 18:49:17;;;;;;;11.40;6.80;;;;;;;13.53;62.78;98460.59;233407;1206;24218;-73
2021/08/25 18:54:19;;;;;;;11.10;7.10;;;;;;;13.44;63.09;98454.81;233367;1197;23653;-74
2021/08/25 18:59:21;;;;;;;10.70;6.80;;;;;;;13.35;63.29;98453.23;233388;1201;24617;-74
2021/08/25 19:04:25;;;;;;;12.40;7.30;;;;;;;13.24;63.71;98450.96;233336;1202;24071;-73
2021/08/25 19:09:27;;;;;;;11.30;6.60;;;;;;;13.11;63.98;98445.04;233016;1202;25201;-73
2021/08/25 19:14:29;;;;;;;13.50;7.70;;;;;;;13.02;64.38;98437.02;233352;1196;25156;-74
2021/08/25 19:19:33;;;;;;;12.60;8.40;;;;;;;12.94;64.84;98435.89;233416;1196;25040;-75
2021/08/25 19:24:35;;;;;;;15.50;9.80;;;;;;;12.84;65.44;98432.04;233126;1206;24138;-74
2021/08/25 19:29:38;;;;;;;15.40;9.60;;;;;;;12.74;65.72;98425.67;233364;1202;25077;-74
2021/08/25 19:34:40;;;;;;;15.50;7.90;;;;;;;12.65;66.05;98419.48;233334;1194;24100;-75
2021/08/25 19:39:43;;;;;;;16.80;9.30;;;;;;;12.57;66.32;98418.84;233365;1206;22468;-72
2021/08/25 19:44:46;;;;;;;14.60;9.00;;;;;;;12.50;66.59;98412.30;233341;1201;25282;-74
2021/08/25 19:49:49;;;;;;;18.80;9.60;;;;;;;12.42;66.89;98407.71;233705;1202;24050;-75
2021/08/25 19:54:52;;;;;;;16.60;10.00;;;;;;;12.36;67.19;98405.86;233478;1203;24068;-72
2021/08/25 19:59:54;;;;;;;15.30;9.20;;;;;;;12.29;67.26;98396.09;233369;1202;22509;-72
2021/08/25 20:05:10;;;;;;;17.60;9.20;;;;;;;12.22;67.57;98392.05;233341;1202;24124;-74
2021/08/25 20:10:33;;;;;;;15.30;8.80;;;;;;;12.14;67.73;98384.49;233389;1208;24080;-73
2021/08/25 20:15:36;;;;;;;15.60;9.20;;;;;;;12.08;67.87;98378.27;233599;1202;25209;-74
2021/08/25 20:20:39;;;;;;;14.20;8.60;;;;;;;12.03;68.06;98376.08;233471;1195;25209;-73
2021/08/25 20:25:42;;;;;;;15.40;9.50;;;;;;;11.97;67.93;98372.90;233372;1202;24147;-73
2021/08/25 20:30:46;;;;;;;16.90;9.30;;;;;;;11.91;68.23;98361.59;233443;1201;22462;-73
2021/08/25 20:35:49;;;;;;;12.40;8.10;;;;;;;11.85;68.33;98357.70;233449;1205;24131;-72
2021/08/25 20:40:51;;;;;;;15.10;8.30;;;;;;;11.83;68.31;98343.98;233580;1206;24226;-74
2021/08/25 20:45:53;;;;;;;15.20;8.70;;;;;;;11.80;68.27;98342.58;233554;1200;22491;-74
2021/08/25 20:50:56;;;;;;;13.10;7.30;;;;;;;11.77;68.26;98335.52;233576;1202;24106;-74
2021/08/25 20:55:58;;;;;;;14.20;7.40;;;;;;;11.74;68.08;98327.17;233535;1200;24099;-75
2021/08/25 21:01:11;;;;;;;15.20;8.90;;;;;;;11.72;68.15;98317.87;233571;1201;24131;-73
2021/08/25 21:06:14;;;;;;;16.00;9.40;;;;;;;11.71;68.39;98308.15;233294;1202;22577;-73
2021/08/25 21:11:16;;;;;;;16.40;9.30;;;;;;;11.68;68.38;98301.79;233327;1204;24067;-74
2021/08/25 21:16:20;;;;;;;15.00;8.50;;;;;;;11.62;68.50;98294.09;233373;1206;22510;-73
2021/08/25 21:21:23;;;;;;;16.20;9.00;;;;;;;11.57;68.63;98291.52;233655;1202;24079;-71
2021/08/25 21:26:25;;;;;;;14.90;8.50;;;;;;;11.53;68.74;98283.86;233383;1203;22575;-73
2021/08/25 21:31:27;;;;;;;13.40;8.60;;;;;;;11.47;69.13;98283.27;233330;1205;24159;-72
2021/08/25 21:36:30;;;;;;;16.40;8.70;;;;;;;11.43;69.64;98284.90;233557;1201;24109;-72
2021/08/25 21:41:32;;;;;;;13.70;8.60;;;;;;;11.38;69.82;98276.54;233451;1206;24092;-74
2021/08/25 21:46:35;;;;;;;13.50;8.30;;;;;;;11.33;69.88;98274.20;233495;1203;24070;-71
2021/08/25 21:51:39;;;;;;;16.10;9.00;;;;;;;11.29;70.34;98268.34;233527;1202;24052;-74
2021/08/25 21:56:45;;;;;;;13.60;7.80;;;;;;;11.25;70.52;98256.64;233376;1205;24089;-74
2021/08/25 22:01:48;;;;;;;14.70;8.50;;;;;;;11.20;70.79;98249.27;233391;1202;24068;-74
2021/08/25 22:06:52;;;;;;;14.40;8.30;;;;;;;11.14;71.16;98247.93;233474;1203;24236;-73
2021/08/25 22:11:54;;;;;;;14.30;7.50;;;;;;;11.11;71.28;98241.38;233323;1205;24227;-73
2021/08/25 22:16:58;;;;;;;13.40;7.90;;;;;;;11.09;71.47;98234.24;233390;1201;24904;-74
2021/08/25 22:22:01;;;;;;;12.00;7.80;;;;;;;11.07;71.72;98226.56;233302;1202;24086;-71
2021/08/25 22:27:03;;;;;;;14.00;8.40;;;;;;;11.04;72.10;98220.25;233383;1198;22500;-74
2021/08/25 22:32:06;;;;;;;13.20;8.10;;;;;;;11.02;72.29;98214.90;233370;1206;22400;-73
2021/08/25 22:37:09;;;;;;;13.80;7.80;;;;;;;11.02;72.49;98204.23;233538;1201;22581;-72
2021/08/25 22:42:12;;;;;;;13.50;8.40;;;;;;;11.03;72.67;98199.69;233369;1200;24067;-71
2021/08/25 22:47:14;;;;;;;12.40;8.10;;;;;;;11.02;72.79;98197.29;233335;1205;24288;-74
2021/08/25 22:52:16;;;;;;;13.00;8.30;;;;;;;11.03;73.13;98188.69;233420;1195;22567;-74
2021/08/25 22:57:19;;;;;;;12.40;7.60;;;;;;;11.06;73.07;98185.63;233365;1201;25181;-72
2021/08/25 23:02:21;;;;;;;14.40;8.30;;;;;;;11.09;73.29;98182.48;233363;1201;25100;-73
2021/08/25 23:07:36;;;;;;;12.20;7.30;;;;;;;11.16;73.51;98175.41;233393;1201;24013;-74
2021/08/25 23:12:39;;;;;;;12.50;8.00;;;;;;;11.25;73.69;98164.06;233333;1202;23169;-73
2021/08/25 23:17:51;;;;;;;16.20;8.30;;;;;;;11.34;73.60;98152.48;233430;1201;24057;-73
2021/08/25 23:23:00;;;;;;;13.00;7.20;;;;;;;11.44;73.71;98151.56;233440;1197;26322;-72
2021/08/25 23:28:16;;;;;;;12.80;7.50;;;;;;;11.53;73.68;98144.07;233488;1202;24089;-74
2021/08/25 23:33:40;;;;;;;11.70;7.40;;;;;;;11.61;73.62;98141.63;233337;1196;24256;-72